createdAt,value
2022-09-23T00:00:25.314Z,0
2022-09-23T00:01:25.874Z,0
2022-09-23T00:02:26.282Z,0
2022-09-23T00:03:25.475Z,0
2022-09-23T00:04:25.206Z,0
2022-09-23T00:05:25.221Z,0
2022-09-23T00:06:24.943Z,0
2022-09-23T00:07:25.154Z,0
2022-09-23T00:08:24.884Z,0
2022-09-23T00:09:25.119Z,0
2022-09-23T00:10:25.105Z,0
2022-09-23T00:11:25.096Z,0
2022-09-23T00:12:25.065Z,0
2022-09-23T00:13:24.554Z,0
2022-09-23T00:14:25.294Z,0
2022-09-23T00:15:24.791Z,0
2022-09-23T00:16:25.306Z,0
2022-09-23T00:17:24.738Z,0
2022-09-23T00:18:25.691Z,0
2022-09-23T00:19:25.213Z,0
2022-09-23T00:20:24.943Z,0
2022-09-23T00:21:24.962Z,0
2022-09-23T00:22:25.163Z,0
2022-09-23T00:23:24.912Z,0
2022-09-23T00:24:24.899Z,0
2022-09-23T00:25:25.125Z,0
2022-09-23T00:26:24.931Z,0
2022-09-23T00:27:25.333Z,0
2022-09-23T00:28:24.805Z,0
2022-09-23T00:29:25.064Z,0
2022-09-23T00:30:25.215Z,0
2022-09-23T00:31:25.698Z,0
2022-09-23T00:32:24.755Z,0
2022-09-23T00:33:24.813Z,0
2022-09-23T00:34:25.390Z,0
2022-09-23T00:35:24.954Z,0
2022-09-23T00:36:25.102Z,0
2022-09-23T00:37:24.951Z,0
2022-09-23T00:38:24.653Z,0
2022-09-23T00:39:24.632Z,0
2022-09-23T00:40:24.812Z,0
2022-09-23T00:41:24.942Z,0
2022-09-23T00:42:24.384Z,0
2022-09-23T00:43:24.833Z,0
2022-09-23T00:44:24.567Z,0
2022-09-23T00:45:24.536Z,0
2022-09-23T00:46:25.407Z,0
2022-09-23T00:47:24.523Z,0
2022-09-23T00:48:24.740Z,0
2022-09-23T00:49:24.726Z,0
2022-09-23T00:50:25.090Z,0
2022-09-23T00:51:24.696Z,0
2022-09-23T00:52:24.442Z,0
2022-09-23T00:53:25.824Z,0
2022-09-23T00:54:25.522Z,0
2022-09-23T00:55:25.518Z,0
2022-09-23T00:56:25.266Z,0
2022-09-23T00:57:25.219Z,0
2022-09-23T00:58:25.461Z,0
2022-09-23T00:59:24.933Z,0
2022-09-23T01:00:25.189Z,0
2022-09-23T01:01:25.181Z,0
2022-09-23T01:02:25.530Z,0
2022-09-23T01:03:24.627Z,0
2022-09-23T01:04:25.115Z,0
2022-09-23T01:05:25.106Z,0
2022-09-23T01:06:25.685Z,0
2022-09-23T01:07:25.067Z,0
2022-09-23T01:08:24.535Z,0
2022-09-23T01:09:25.080Z,0
2022-09-23T01:10:25.364Z,0
2022-09-23T01:11:24.747Z,0
2022-09-23T01:12:25.494Z,0
2022-09-23T01:13:25.221Z,0
2022-09-23T01:14:25.214Z,0
2022-09-23T01:15:24.940Z,0
2022-09-23T01:16:25.397Z,0
2022-09-23T01:17:24.903Z,0
2022-09-23T01:18:24.886Z,0
2022-09-23T01:19:25.375Z,0
2022-09-23T01:20:25.107Z,0
2022-09-23T01:21:25.089Z,0
2022-09-23T01:22:25.180Z,0
2022-09-23T01:23:25.071Z,0
2022-09-23T01:24:25.038Z,0
2022-09-23T01:25:25.058Z,0
2022-09-23T01:26:24.498Z,0
2022-09-23T01:27:24.229Z,0
2022-09-23T01:28:24.983Z,0
2022-09-23T01:29:25.222Z,0
2022-09-23T01:30:24.695Z,0
2022-09-23T01:31:25.067Z,0
2022-09-23T01:32:24.665Z,0
2022-09-23T01:33:25.147Z,0
2022-09-23T01:35:24.627Z,0
2022-09-23T01:36:24.874Z,0
2022-09-23T01:37:24.592Z,0
2022-09-23T01:38:24.995Z,0
2022-09-23T01:39:24.792Z,0
2022-09-23T01:40:25.238Z,0
2022-09-23T01:41:24.815Z,0
2022-09-23T01:42:24.497Z,0
2022-09-23T01:43:24.738Z,0
2022-09-23T01:44:24.224Z,0
2022-09-23T01:45:24.705Z,0
2022-09-23T01:46:24.435Z,0
2022-09-23T01:47:24.420Z,0
2022-09-23T01:48:25.317Z,0
2022-09-23T01:49:25.694Z,0
2022-09-23T01:50:24.625Z,0
2022-09-23T01:51:24.619Z,0
2022-09-23T01:52:23.824Z,0
2022-09-23T01:53:24.088Z,0
2022-09-23T01:54:24.666Z,0
2022-09-23T01:55:24.805Z,0
2022-09-23T01:56:23.776Z,0
2022-09-23T01:57:24.787Z,0
2022-09-23T01:58:24.503Z,0
2022-09-23T01:59:24.490Z,0
2022-09-23T02:00:24.501Z,0
2022-09-23T02:01:24.623Z,0
2022-09-23T02:02:25.248Z,0
2022-09-23T02:03:24.175Z,0
2022-09-23T02:04:24.402Z,0
2022-09-23T02:05:23.895Z,0
2022-09-23T02:06:24.654Z,0
2022-09-23T02:07:24.115Z,0
2022-09-23T02:08:24.081Z,0
2022-09-23T02:09:24.566Z,0
2022-09-23T02:10:24.400Z,0
2022-09-23T02:11:24.035Z,0
2022-09-23T02:12:24.271Z,0
2022-09-23T02:13:24.023Z,0
2022-09-23T02:14:24.236Z,0
2022-09-23T02:15:23.963Z,0
2022-09-23T02:16:24.019Z,0
2022-09-23T02:17:23.682Z,0
2022-09-23T02:18:24.177Z,0
2022-09-23T02:19:23.904Z,0
2022-09-23T02:20:24.154Z,0
2022-09-23T02:21:23.868Z,0
2022-09-23T02:22:24.108Z,0
2022-09-23T02:23:24.376Z,0
2022-09-23T02:24:24.342Z,0
2022-09-23T02:25:24.314Z,0
2022-09-23T02:26:24.140Z,0
2022-09-23T02:27:24.030Z,0
2022-09-23T02:28:24.006Z,0
2022-09-23T02:29:24.058Z,0
2022-09-23T02:30:23.987Z,0
2022-09-23T02:31:23.594Z,0
2022-09-23T02:32:24.084Z,0
2022-09-23T02:33:23.420Z,0
2022-09-23T02:34:24.169Z,0
2022-09-23T02:35:23.643Z,0
2022-09-23T02:36:24.137Z,0
2022-09-23T02:37:23.619Z,0
2022-09-23T02:38:24.105Z,0
2022-09-23T02:39:23.062Z,0
2022-09-23T02:40:24.108Z,0
2022-09-23T02:41:23.804Z,0
2022-09-23T02:42:23.881Z,0
2022-09-23T02:43:23.775Z,0
2022-09-23T02:44:23.761Z,0
2022-09-23T02:45:23.763Z,0
2022-09-23T02:46:23.686Z,0
2022-09-23T02:47:23.701Z,0
2022-09-23T02:48:23.432Z,0
2022-09-23T02:49:23.410Z,0
2022-09-23T02:50:23.402Z,0
2022-09-23T02:51:23.377Z,0
2022-09-23T02:52:23.110Z,0
2022-09-23T02:53:23.094Z,0
2022-09-23T02:54:23.588Z,0
2022-09-23T02:55:23.320Z,0
2022-09-23T02:56:23.323Z,0
2022-09-23T02:57:23.276Z,0
2022-09-23T02:58:23.620Z,0
2022-09-23T02:59:23.518Z,0
2022-09-23T03:00:23.500Z,0
2022-09-23T03:01:23.929Z,0
2022-09-23T03:02:24.086Z,0
2022-09-23T03:03:23.445Z,0
2022-09-23T03:04:23.196Z,0
2022-09-23T03:05:23.159Z,0
2022-09-23T03:06:22.891Z,0
2022-09-23T03:07:23.391Z,0
2022-09-23T03:08:22.870Z,0
2022-09-23T03:09:22.843Z,0
2022-09-23T03:10:22.816Z,0
2022-09-23T03:11:23.060Z,0
2022-09-23T03:12:23.312Z,0
2022-09-23T03:13:26.181Z,0
2022-09-23T03:14:23.365Z,0
2022-09-23T03:15:23.593Z,0
2022-09-23T03:16:23.825Z,0
2022-09-23T03:17:23.238Z,0
2022-09-23T03:18:23.194Z,0
2022-09-23T03:19:23.181Z,0
2022-09-23T03:20:22.911Z,0
2022-09-23T03:21:23.172Z,0
2022-09-23T03:22:22.628Z,0
2022-09-23T03:23:22.865Z,0
2022-09-23T03:24:23.119Z,0
2022-09-23T03:25:22.582Z,0
2022-09-23T03:26:22.555Z,0
2022-09-23T03:27:22.816Z,0
2022-09-23T03:28:23.034Z,0
2022-09-23T03:29:22.774Z,0
2022-09-23T03:30:23.361Z,0
2022-09-23T03:31:23.216Z,0
2022-09-23T03:32:23.228Z,0
2022-09-23T03:50:05.813Z,0
2022-09-23T03:51:05.418Z,0
2022-09-23T03:52:04.964Z,0
2022-09-23T03:53:05.130Z,0
2022-09-23T03:54:05.363Z,0
2022-09-23T03:55:05.345Z,0
2022-09-23T03:56:05.072Z,0
2022-09-23T03:57:05.316Z,0
2022-09-23T03:58:04.804Z,0
2022-09-23T03:59:05.271Z,0
2022-09-23T04:00:04.995Z,0
2022-09-23T04:01:05.220Z,0
2022-09-23T04:02:05.392Z,0
2022-09-23T04:03:11.525Z,0
2022-09-23T04:04:05.318Z,0
2022-09-23T04:05:04.667Z,0
2022-09-23T04:06:05.524Z,0
2022-09-23T04:07:04.398Z,0
2022-09-23T04:08:05.146Z,0
2022-09-23T04:09:04.337Z,0
2022-09-23T04:10:05.340Z,0
2022-09-23T04:11:04.554Z,0
2022-09-23T04:12:05.321Z,0
2022-09-23T04:13:05.062Z,0
2022-09-23T04:14:04.763Z,0
2022-09-23T04:15:04.516Z,0
2022-09-23T04:16:05.013Z,0
2022-09-23T04:17:04.982Z,0
2022-09-23T04:18:05.207Z,0
2022-09-23T04:19:05.242Z,0
2022-09-23T04:20:04.917Z,0
2022-09-23T04:21:04.969Z,0
2022-09-23T04:22:05.273Z,0
2022-09-23T04:23:04.628Z,0
2022-09-23T04:24:04.335Z,0
2022-09-23T04:25:05.101Z,0
2022-09-23T04:26:04.816Z,0
2022-09-23T04:27:04.562Z,0
2022-09-23T04:28:04.809Z,0
2022-09-23T04:29:04.449Z,0
2022-09-23T04:30:04.260Z,0
2022-09-23T04:31:04.613Z,0
2022-09-23T04:32:04.786Z,0
2022-09-23T04:33:04.980Z,0
2022-09-23T04:34:04.442Z,0
2022-09-23T04:35:04.412Z,0
2022-09-23T04:36:04.393Z,0
2022-09-23T04:37:04.640Z,0
2022-09-23T04:38:05.190Z,0
2022-09-23T04:39:04.522Z,0
2022-09-23T04:40:04.653Z,0
2022-09-23T04:41:04.317Z,0
2022-09-23T04:42:04.050Z,0
2022-09-23T04:43:04.294Z,0
2022-09-23T04:44:04.782Z,0
2022-09-23T04:45:04.506Z,0
2022-09-23T04:46:04.494Z,0
2022-09-23T04:47:04.612Z,0
2022-09-23T04:48:04.465Z,0
2022-09-23T04:49:04.545Z,0
2022-09-23T04:50:09.027Z,0
2022-09-23T04:51:04.412Z,0
2022-09-23T04:52:04.392Z,0
2022-09-23T04:53:04.142Z,0
2022-09-23T04:54:04.747Z,0
2022-09-23T04:55:06.930Z,0
2022-09-23T04:56:04.070Z,5
2022-09-23T04:57:04.331Z,5
2022-09-23T04:58:04.301Z,5
2022-09-23T04:59:04.855Z,5
2022-09-23T05:00:03.758Z,5
2022-09-23T05:01:10.111Z,5
2022-09-23T05:02:04.032Z,5
2022-09-23T05:03:04.231Z,5
2022-09-23T05:04:03.956Z,10
2022-09-23T05:05:04.188Z,10
2022-09-23T05:06:03.912Z,10
2022-09-23T05:07:10.217Z,10
2022-09-23T05:08:03.772Z,10
2022-09-23T05:09:04.489Z,10
2022-09-23T05:10:04.682Z,10
2022-09-23T05:11:03.983Z,15
2022-09-23T05:12:04.214Z,15
2022-09-23T05:13:06.632Z,15
2022-09-23T05:14:03.965Z,15
2022-09-23T05:15:04.169Z,15
2022-09-23T05:16:04.445Z,15
2022-09-23T05:17:04.142Z,20
2022-09-23T05:18:03.630Z,20
2022-09-23T05:19:04.031Z,20
2022-09-23T05:20:04.113Z,20
2022-09-23T05:21:03.818Z,20
2022-09-23T05:22:04.310Z,20
2022-09-23T05:23:03.784Z,25
2022-09-23T05:24:03.434Z,25
2022-09-23T05:25:04.265Z,25
2022-09-23T05:26:04.373Z,25
2022-09-23T05:27:03.986Z,25
2022-09-23T05:28:03.962Z,30
2022-09-23T05:29:03.867Z,30
2022-09-23T05:30:03.415Z,30
2022-09-23T05:31:04.222Z,30
2022-09-23T05:32:04.033Z,30
2022-09-23T05:33:04.134Z,30
2022-09-23T05:34:03.860Z,30
2022-09-23T05:35:03.858Z,35
2022-09-23T05:36:03.851Z,35
2022-09-23T05:37:03.817Z,35
2022-09-23T05:38:03.544Z,35
2022-09-23T05:39:03.960Z,35
2022-09-23T05:40:03.863Z,35
2022-09-23T05:41:03.295Z,40
2022-09-23T05:42:04.221Z,40
2022-09-23T05:43:03.471Z,40
2022-09-23T05:44:03.965Z,40
2022-09-23T05:45:03.432Z,40
2022-09-23T05:46:08.310Z,40
2022-09-23T05:47:03.850Z,40
2022-09-23T05:48:03.392Z,45
2022-09-23T05:49:14.020Z,45
2022-09-23T05:50:09.114Z,45
2022-09-23T05:51:03.342Z,45
2022-09-23T05:52:03.321Z,45
2022-09-23T05:53:03.341Z,45
2022-09-23T05:54:03.560Z,45
2022-09-23T05:55:03.022Z,50
2022-09-23T05:57:09.876Z,50
2022-09-23T05:58:03.785Z,50
2022-09-23T05:59:03.350Z,50
2022-09-23T06:00:02.949Z,50
2022-09-23T06:01:03.693Z,50
2022-09-23T06:02:05.731Z,50
2022-09-23T06:03:03.256Z,50
2022-09-23T06:04:03.323Z,55
2022-09-23T06:05:03.138Z,55
2022-09-23T06:06:03.131Z,55
2022-09-23T06:07:07.866Z,55
2022-09-23T06:08:03.069Z,55
2022-09-23T06:09:03.341Z,55
2022-09-23T06:10:03.088Z,55
2022-09-23T06:11:03.517Z,55
2022-09-23T06:12:02.781Z,55
2022-09-23T06:13:03.343Z,55
2022-09-23T06:14:03.952Z,55
2022-09-23T06:15:03.489Z,60
2022-09-23T06:16:03.163Z,60
2022-09-23T06:17:03.193Z,60
2022-09-23T06:18:03.429Z,60
2022-09-23T06:19:09.640Z,60
2022-09-23T06:20:02.630Z,60
2022-09-23T06:21:02.622Z,60
2022-09-23T06:22:03.116Z,60
2022-09-23T06:23:09.293Z,60
2022-09-23T06:24:06.004Z,60
2022-09-23T06:25:03.072Z,60
2022-09-23T06:26:02.802Z,65
2022-09-23T06:27:03.065Z,65
2022-09-23T06:28:02.771Z,65
2022-09-23T06:29:03.100Z,65
2022-09-23T06:30:03.046Z,65
2022-09-23T06:31:03.211Z,65
2022-09-23T06:32:03.236Z,65
2022-09-23T06:33:02.943Z,65
2022-09-23T06:34:20.855Z,65
2022-09-23T06:35:02.651Z,65
2022-09-23T06:36:08.844Z,65
2022-09-23T06:37:20.044Z,65
2022-09-23T06:38:02.352Z,65
2022-09-23T06:39:02.848Z,65
2022-09-23T06:40:02.910Z,70
2022-09-23T06:41:02.142Z,70
2022-09-23T06:42:02.559Z,70
2022-09-23T06:43:02.283Z,70
2022-09-23T06:44:02.307Z,70
2022-09-23T06:45:02.911Z,70
2022-09-23T06:46:03.052Z,70
2022-09-23T06:47:03.220Z,75
2022-09-23T06:48:02.516Z,75
2022-09-23T06:49:02.223Z,75
2022-09-23T06:50:02.448Z,75
2022-09-23T06:51:02.680Z,75
2022-09-23T06:52:02.920Z,75
2022-09-23T06:53:02.386Z,80
2022-09-23T06:54:02.650Z,80
2022-09-23T06:55:02.111Z,80
2022-09-23T06:56:02.625Z,80
2022-09-23T06:57:02.327Z,80
2022-09-23T06:58:02.316Z,80
2022-09-23T06:59:02.816Z,80
2022-09-23T07:00:02.799Z,85
2022-09-23T07:01:02.862Z,85
2022-09-23T07:02:03.221Z,85
2022-09-23T07:03:02.717Z,85
2022-09-23T07:04:02.261Z,90
2022-09-23T07:05:01.982Z,90
2022-09-23T07:06:01.940Z,90
2022-09-23T07:07:02.466Z,95
2022-09-23T07:08:02.416Z,95
2022-09-23T07:09:02.402Z,95
2022-09-23T07:10:02.655Z,95
2022-09-23T07:11:02.136Z,95
2022-09-23T07:12:02.113Z,95
2022-09-23T07:13:02.101Z,95
2022-09-23T07:14:02.341Z,95
2022-09-23T07:15:02.091Z,90
2022-09-23T07:16:02.375Z,90
2022-09-23T07:17:02.753Z,90
2022-09-23T07:18:02.597Z,90
2022-09-23T07:19:02.335Z,90
2022-09-23T07:20:02.259Z,90
2022-09-23T07:21:02.258Z,90
2022-09-23T07:22:01.973Z,90
2022-09-23T07:23:02.212Z,90
2022-09-23T07:24:01.949Z,90
2022-09-23T07:25:02.195Z,90
2022-09-23T07:26:02.183Z,90
2022-09-23T07:27:02.157Z,90
2022-09-23T07:28:02.399Z,90
2022-09-23T07:29:01.639Z,90
2022-09-23T07:30:01.785Z,90
2022-09-23T07:31:10.195Z,90
2022-09-23T07:32:19.455Z,90
2022-09-23T07:33:06.145Z,90
2022-09-23T07:34:02.157Z,90
2022-09-23T07:35:01.618Z,90
2022-09-23T07:36:01.544Z,90
2022-09-23T07:37:02.045Z,90
2022-09-23T07:38:02.014Z,90
2022-09-23T07:39:02.274Z,95
2022-09-23T07:40:01.728Z,95
2022-09-23T07:41:02.085Z,95
2022-09-23T07:42:01.709Z,95
2022-09-23T07:43:01.700Z,95
2022-09-23T07:44:02.184Z,95
2022-09-23T07:45:01.669Z,95
2022-09-23T07:46:01.763Z,95
2022-09-23T07:47:02.226Z,95
2022-09-23T07:48:02.008Z,95
2022-09-23T07:49:01.779Z,95
2022-09-23T07:50:02.170Z,95
2022-09-23T07:51:01.337Z,95
2022-09-23T07:52:01.686Z,100
2022-09-23T07:53:01.317Z,100
2022-09-23T07:54:01.819Z,100
2022-09-23T07:55:01.789Z,100
2022-09-23T07:56:01.267Z,100
2022-09-23T07:57:01.768Z,105
2022-09-23T07:58:01.757Z,105
2022-09-23T07:59:01.504Z,105
2022-09-23T08:00:01.985Z,105
2022-09-23T08:01:01.203Z,105
2022-09-23T08:02:02.457Z,105
2022-09-23T08:03:03.199Z,105
2022-09-23T08:04:01.867Z,105
2022-09-23T08:05:01.513Z,105
2022-09-23T08:06:02.164Z,105
2022-09-23T08:07:01.242Z,105
2022-09-23T08:08:01.783Z,105
2022-09-23T08:09:03.340Z,105
2022-09-23T08:10:01.221Z,105
2022-09-23T08:11:01.443Z,110
2022-09-23T08:12:01.431Z,110
2022-09-23T08:13:01.420Z,110
2022-09-23T08:14:01.586Z,110
2022-09-23T08:15:01.654Z,110
2022-09-23T08:16:04.349Z,110
2022-09-23T08:17:01.253Z,110
2022-09-23T08:18:01.357Z,110
2022-09-23T08:19:02.395Z,110
2022-09-23T08:20:02.060Z,110
2022-09-23T08:21:01.313Z,110
2022-09-23T08:22:01.565Z,105
2022-09-23T08:23:01.809Z,105
2022-09-23T08:24:01.692Z,105
2022-09-23T08:25:06.987Z,105
2022-09-23T08:26:05.555Z,105
2022-09-23T08:27:01.884Z,105
2022-09-23T08:28:02.142Z,105
2022-09-23T08:29:02.375Z,105
2022-09-23T08:30:02.368Z,105
2022-09-23T08:31:02.378Z,105
2022-09-23T08:32:02.113Z,105
2022-09-23T08:33:02.074Z,105
2022-09-23T08:34:02.337Z,105
2022-09-23T08:35:01.808Z,105
2022-09-23T08:36:01.870Z,105
2022-09-23T08:37:02.281Z,105
2022-09-23T08:38:02.335Z,105
2022-09-23T08:39:01.534Z,105
2022-09-23T08:40:01.761Z,105
2022-09-23T08:41:01.993Z,105
2022-09-23T08:42:07.523Z,105
2022-09-23T08:43:01.452Z,105
2022-09-23T08:44:01.538Z,105
2022-09-23T08:45:02.218Z,105
2022-09-23T08:46:02.927Z,105
2022-09-23T08:47:02.644Z,105
2022-09-23T08:48:02.388Z,105
2022-09-23T08:49:02.295Z,105
2022-09-23T08:50:02.266Z,105
2022-09-23T08:51:02.778Z,105
2022-09-23T08:52:02.927Z,105
2022-09-23T08:53:02.749Z,105
2022-09-23T08:54:02.639Z,105
2022-09-23T08:55:04.880Z,105
2022-09-23T08:56:02.721Z,100
2022-09-23T08:57:01.948Z,100
2022-09-23T08:58:33.463Z,105
2022-09-23T08:59:02.212Z,105
2022-09-23T09:00:02.423Z,105
2022-09-23T09:01:02.820Z,105
2022-09-23T09:02:01.893Z,105
2022-09-23T09:03:02.354Z,110
2022-09-23T09:04:02.129Z,110
2022-09-23T09:05:02.368Z,110
2022-09-23T09:06:03.566Z,110
2022-09-23T09:07:42.494Z,110
2022-09-23T09:08:02.096Z,110
2022-09-23T09:09:02.160Z,110
2022-09-23T09:10:02.125Z,115
2022-09-23T09:11:02.060Z,115
2022-09-23T09:12:02.040Z,115
2022-09-23T09:13:02.293Z,120
2022-09-23T09:14:02.283Z,120
2022-09-23T09:15:01.769Z,120
2022-09-23T09:16:04.765Z,120
2022-09-23T09:17:09.364Z,125
2022-09-23T09:18:01.995Z,125
2022-09-23T09:19:02.087Z,125
2022-09-23T09:20:02.018Z,125
2022-09-23T09:21:01.777Z,125
2022-09-23T09:22:01.942Z,130
2022-09-23T09:23:03.061Z,125
2022-09-23T09:24:02.336Z,125
2022-09-23T09:25:02.190Z,130
2022-09-23T09:26:02.243Z,135
2022-09-23T09:27:01.638Z,135
2022-09-23T09:28:01.910Z,135
2022-09-23T09:29:39.034Z,130
2022-09-23T09:30:01.871Z,130
2022-09-23T09:31:02.457Z,135
2022-09-23T09:32:01.602Z,135
2022-09-23T09:33:01.897Z,140
2022-09-23T09:34:01.837Z,140
2022-09-23T09:35:01.830Z,145
2022-09-23T09:36:02.073Z,140
2022-09-23T09:37:07.112Z,140
2022-09-23T09:38:03.224Z,140
2022-09-23T09:39:02.356Z,145
2022-09-23T09:40:01.787Z,150
2022-09-23T09:41:01.937Z,155
2022-09-23T09:42:02.095Z,155
2022-09-23T09:43:01.781Z,150
2022-09-23T09:44:01.865Z,150
2022-09-23T09:45:01.766Z,150
2022-09-23T09:46:06.863Z,150
2022-09-23T09:47:02.687Z,140
2022-09-23T09:48:02.053Z,150
2022-09-23T09:49:02.127Z,150
2022-09-23T09:50:01.964Z,155
2022-09-23T09:51:01.715Z,160
2022-09-23T09:52:01.435Z,160
2022-09-23T09:53:01.887Z,160
2022-09-23T09:54:01.964Z,160
2022-09-23T09:55:02.071Z,160
2022-09-23T09:56:08.233Z,160
2022-09-23T09:57:01.912Z,160
2022-09-23T09:58:02.086Z,165
2022-09-23T09:59:02.217Z,170
2022-09-23T10:00:01.835Z,170
2022-09-23T10:01:01.963Z,175
2022-09-23T10:02:01.898Z,175
2022-09-23T10:03:01.828Z,175
2022-09-23T10:04:06.803Z,170
2022-09-23T10:05:02.023Z,170
2022-09-23T10:06:01.769Z,165
2022-09-23T10:07:01.511Z,160
2022-09-23T10:08:01.755Z,155
2022-09-23T10:09:01.239Z,160
2022-09-23T10:10:35.832Z,160
2022-09-23T10:11:01.756Z,160
2022-09-23T10:12:01.752Z,165
2022-09-23T10:13:01.719Z,165
2022-09-23T10:14:01.767Z,170
2022-09-23T10:15:01.464Z,170
2022-09-23T10:16:01.439Z,165
2022-09-23T10:17:02.011Z,160
2022-09-23T10:18:01.935Z,160
2022-09-23T10:19:01.677Z,155
2022-09-23T10:20:01.165Z,155
2022-09-23T10:21:01.665Z,160
2022-09-23T10:22:01.142Z,160
2022-09-23T10:23:01.642Z,160
2022-09-23T10:24:01.893Z,160
2022-09-23T10:25:01.367Z,165
2022-09-23T10:26:01.439Z,165
2022-09-23T10:27:01.381Z,165
2022-09-23T10:28:04.783Z,165
2022-09-23T10:29:01.350Z,165
2022-09-23T10:30:01.712Z,165
2022-09-23T10:31:02.054Z,165
2022-09-23T10:32:01.573Z,170
2022-09-23T10:33:01.989Z,170
2022-09-23T10:34:01.574Z,165
2022-09-23T10:35:01.859Z,165
2022-09-23T10:36:02.047Z,165
2022-09-23T10:37:01.032Z,165
2022-09-23T10:38:01.369Z,160
2022-09-23T10:39:01.531Z,165
2022-09-23T10:40:01.528Z,160
2022-09-23T10:41:01.938Z,160
2022-09-23T10:42:01.844Z,160
2022-09-23T10:43:01.250Z,160
2022-09-23T10:44:01.754Z,160
2022-09-23T10:45:01.492Z,155
2022-09-23T10:46:01.906Z,155
2022-09-23T10:47:01.229Z,155
2022-09-23T10:48:01.291Z,155
2022-09-23T10:49:01.204Z,165
2022-09-23T10:50:01.201Z,170
2022-09-23T10:51:03.844Z,175
2022-09-23T10:52:01.182Z,175
2022-09-23T10:53:01.435Z,175
2022-09-23T10:54:01.785Z,175
2022-09-23T10:55:01.428Z,180
2022-09-23T10:56:01.689Z,180
2022-09-23T10:57:07.504Z,185
2022-09-23T10:58:01.540Z,185
2022-09-23T10:59:00.889Z,190
2022-09-23T11:00:00.880Z,190
2022-09-23T11:01:01.496Z,190
2022-09-23T11:02:01.717Z,190
2022-09-23T11:03:01.131Z,190
2022-09-23T11:04:01.584Z,190
2022-09-23T11:05:01.378Z,190
2022-09-23T11:06:01.345Z,185
2022-09-23T11:07:01.352Z,185
2022-09-23T11:08:01.078Z,180
2022-09-23T11:09:01.600Z,180
2022-09-23T11:10:01.325Z,175
2022-09-23T11:11:01.368Z,175
2022-09-23T11:12:01.068Z,170
2022-09-23T11:13:01.454Z,170
2022-09-23T11:14:04.355Z,165
2022-09-23T11:15:01.044Z,160
2022-09-23T11:16:00.775Z,160
2022-09-23T11:17:01.636Z,155
2022-09-23T11:18:01.337Z,155
2022-09-23T11:19:01.033Z,155
2022-09-23T11:20:01.263Z,155
2022-09-23T11:21:01.276Z,155
2022-09-23T11:22:00.743Z,155
2022-09-23T11:23:01.244Z,155
2022-09-23T11:24:01.326Z,155
2022-09-23T11:25:00.844Z,155
2022-09-23T11:26:01.225Z,150
2022-09-23T11:27:01.215Z,150
2022-09-23T11:28:01.214Z,150
2022-09-23T11:29:01.015Z,150
2022-09-23T11:30:00.686Z,150
2022-09-23T11:31:01.324Z,150
2022-09-23T11:32:06.199Z,150
2022-09-23T11:33:00.704Z,150
2022-09-23T11:34:01.470Z,150
2022-09-23T11:35:04.448Z,150
2022-09-23T11:36:00.901Z,150
2022-09-23T11:37:01.410Z,150
2022-09-23T11:38:01.136Z,150
2022-09-23T11:39:01.518Z,150
2022-09-23T11:40:01.512Z,150
2022-09-23T11:41:01.751Z,150
2022-09-23T11:42:01.486Z,150
2022-09-23T11:43:01.229Z,145
2022-09-23T11:44:01.225Z,145
2022-09-23T11:45:01.769Z,145
2022-09-23T11:46:01.814Z,145
2022-09-23T11:47:01.450Z,145
2022-09-23T11:48:01.212Z,145
2022-09-23T11:49:01.195Z,145
2022-09-23T11:50:01.490Z,140
2022-09-23T11:51:01.429Z,140
2022-09-23T11:52:01.163Z,140
2022-09-23T11:53:01.158Z,140
2022-09-23T11:54:01.193Z,140
2022-09-23T11:55:04.233Z,140
2022-09-23T11:56:07.520Z,140
2022-09-23T11:57:00.879Z,140
2022-09-23T11:58:01.612Z,140
2022-09-23T11:59:07.283Z,135
2022-09-23T12:00:01.643Z,135
2022-09-23T12:01:08.302Z,135
2022-09-23T12:02:19.868Z,135
2022-09-23T12:03:13.847Z,135
2022-09-23T12:04:20.966Z,135
2022-09-23T12:05:08.335Z,135
2022-09-23T12:06:02.352Z,130
2022-09-23T12:07:01.077Z,130
2022-09-23T12:08:01.324Z,130
2022-09-23T12:09:01.299Z,125
2022-09-23T12:10:08.101Z,125
2022-09-23T12:11:01.289Z,120
2022-09-23T12:12:01.077Z,120
2022-09-23T12:13:01.269Z,115
2022-09-23T12:14:01.534Z,115
2022-09-23T12:15:01.103Z,115
2022-09-23T12:16:01.298Z,110
2022-09-23T12:17:01.812Z,110
2022-09-23T12:18:01.270Z,110
2022-09-23T12:19:00.719Z,110
2022-09-23T12:20:01.020Z,110
2022-09-23T12:21:01.500Z,105
2022-09-23T12:22:01.012Z,105
2022-09-23T12:23:01.208Z,105
2022-09-23T12:24:01.194Z,105
2022-09-23T12:25:01.030Z,100
2022-09-23T12:26:01.171Z,100
2022-09-23T12:27:00.927Z,100
2022-09-23T12:28:00.656Z,100
2022-09-23T12:29:00.904Z,100
2022-09-23T12:30:00.900Z,100
2022-09-23T12:31:01.145Z,100
2022-09-23T12:32:01.398Z,100
2022-09-23T12:33:01.205Z,100
2022-09-23T12:34:00.939Z,100
2022-09-23T12:35:00.647Z,90
2022-09-23T12:36:00.853Z,100
2022-09-23T12:37:01.153Z,100
2022-09-23T12:38:01.370Z,100
2022-09-23T12:39:00.825Z,100
2022-09-23T12:40:00.564Z,100
2022-09-23T12:41:01.409Z,105
2022-09-23T12:42:00.580Z,105
2022-09-23T12:43:00.800Z,105
2022-09-23T12:44:01.110Z,105
2022-09-23T12:45:01.045Z,115
2022-09-23T12:46:01.360Z,120
2022-09-23T12:47:01.048Z,110
2022-09-23T12:48:01.013Z,110
2022-09-23T12:49:01.338Z,110
2022-09-23T12:50:00.753Z,120
2022-09-23T12:51:00.227Z,130
2022-09-23T12:52:00.988Z,130
2022-09-23T12:53:00.756Z,125
2022-09-23T12:54:01.057Z,120
2022-09-23T12:55:00.733Z,120
2022-09-23T12:56:00.742Z,120
2022-09-23T12:57:00.212Z,115
2022-09-23T12:58:00.679Z,115
2022-09-23T12:59:00.938Z,115
2022-09-23T13:00:00.927Z,110
2022-09-23T13:01:01.581Z,110
2022-09-23T13:02:01.501Z,105
2022-09-23T13:03:00.922Z,105
2022-09-23T13:04:00.947Z,110
2022-09-23T13:05:01.092Z,110
2022-09-23T13:06:01.132Z,110
2022-09-23T13:07:00.873Z,110
2022-09-23T13:08:00.883Z,110
2022-09-23T13:09:00.942Z,100
2022-09-23T13:10:00.359Z,110
2022-09-23T13:11:00.333Z,115
2022-09-23T13:12:00.833Z,120
2022-09-23T13:13:00.318Z,125
2022-09-23T13:14:00.333Z,125
2022-09-23T13:15:00.704Z,120
2022-09-23T13:16:00.301Z,115
2022-09-23T13:17:01.347Z,115
2022-09-23T13:18:00.791Z,115
2022-09-23T13:19:00.782Z,115
2022-09-23T13:20:01.041Z,110
2022-09-23T13:21:00.598Z,110
2022-09-23T13:22:00.780Z,110
2022-09-23T13:23:00.755Z,110
2022-09-23T13:24:01.069Z,110
2022-09-23T13:25:00.824Z,110
2022-09-23T13:26:00.505Z,110
2022-09-23T13:27:00.471Z,115
2022-09-23T13:28:00.465Z,115
2022-09-23T13:29:00.513Z,115
2022-09-23T13:30:01.479Z,115
2022-09-23T13:31:02.749Z,120
2022-09-23T13:32:01.160Z,120
2022-09-23T13:33:00.681Z,115
2022-09-23T13:34:00.740Z,115
2022-09-23T13:35:00.504Z,115
2022-09-23T13:36:00.409Z,120
2022-09-23T13:37:00.902Z,125
2022-09-23T13:38:00.126Z,130
2022-09-23T13:39:00.892Z,135
2022-09-23T13:40:00.380Z,135
2022-09-23T13:41:00.916Z,135
2022-09-23T13:42:00.379Z,135
2022-09-23T13:43:00.338Z,135
2022-09-23T13:44:00.458Z,135
2022-09-23T13:45:00.631Z,140
2022-09-23T13:46:00.678Z,140
2022-09-23T13:47:00.311Z,140
2022-09-23T13:48:00.057Z,140
2022-09-23T13:49:00.555Z,140
2022-09-23T13:50:00.845Z,135
2022-09-23T13:51:00.853Z,135
2022-09-23T13:52:00.573Z,130
2022-09-23T13:53:00.657Z,130
2022-09-23T13:54:00.359Z,135
2022-09-23T13:55:00.365Z,135
2022-09-23T13:56:02.208Z,135
2022-09-23T13:57:00.773Z,135
2022-09-23T13:58:00.408Z,135
2022-09-23T13:59:00.516Z,130
2022-09-23T14:00:00.517Z,130
2022-09-23T14:01:00.730Z,130
2022-09-23T14:02:00.814Z,125
2022-09-23T14:02:59.976Z,125
2022-09-23T14:04:00.281Z,125
2022-09-23T14:05:00.477Z,120
2022-09-23T14:06:00.462Z,115
2022-09-23T14:07:00.746Z,115
2022-09-23T14:08:00.451Z,110
2022-09-23T14:09:00.553Z,110
2022-09-23T14:09:59.928Z,110
2022-09-23T14:11:00.180Z,110
2022-09-23T14:12:01.192Z,110
2022-09-23T14:13:00.691Z,105
2022-09-23T14:14:00.763Z,105
2022-09-23T14:15:00.922Z,100
2022-09-23T14:16:01.325Z,105
2022-09-23T14:17:01.149Z,105
2022-09-23T14:18:00.892Z,105
2022-09-23T14:19:00.625Z,110
2022-09-23T14:20:00.628Z,110
2022-09-23T14:21:00.623Z,110
2022-09-23T14:22:00.596Z,105
2022-09-23T14:23:00.591Z,105
2022-09-23T14:24:00.919Z,105
2022-09-23T14:25:00.696Z,100
2022-09-23T14:26:00.568Z,95
2022-09-23T14:27:00.821Z,95
2022-09-23T14:28:05.298Z,95
2022-09-23T14:29:00.912Z,95
2022-09-23T14:30:00.824Z,95